OVO1020 ZSAM-ZJHK
Flight info
| Callsign | OVO1020 |
|---|---|
| Flight time | 1h 36m |
| Altitude | 27600 |
| Route | NUSPA W597 IKATA A470 BEBEM R200 BIGRO G221 GIVIV W605 DOMGO |
| Aircraft | A359/H-SDE2E3GHIJ1J3J4J5LM1ORWXYZ/LB1D1 |
Departure
| Time | 2026-05-06 15:47 |
|---|---|
| Airport | Xiamen Gaoqi International Airport (ZSAM) |
Arrival
| Time | 2026-05-06 17:24 |
|---|---|
| Airport | Haikou Meilan International Airport (ZJHK) |
| Time | Latitude | Longitude | Altitude | Speed | Heading |
|---|---|---|---|---|---|
| 2026-05-06 15:13 | 24.53380 | 118.11867 | 69 ft | 0 kts | 182° |
| 2026-05-06 15:37 | 24.53385 | 118.11867 | 61 ft | 3 kts | 182° |
| 2026-05-06 15:38 | 24.53412 | 118.11868 | 59 ft | 4 kts | 181° |
| 2026-05-06 15:38 | 24.53439 | 118.11869 | 60 ft | 4 kts | 184° |
| 2026-05-06 15:38 | 24.53461 | 118.11871 | 64 ft | 4 kts | 191° |
| 2026-05-06 15:38 | 24.53485 | 118.11882 | 60 ft | 4 kts | 226° |
| 2026-05-06 15:39 | 24.53500 | 118.11905 | 60 ft | 4 kts | 235° |
| 2026-05-06 15:39 | 24.53504 | 118.11912 | 60 ft | 4 kts | 231° |
| 2026-05-06 15:42 | 24.53503 | 118.11910 | 69 ft | 2 kts | 231° |
| 2026-05-06 15:43 | 24.53496 | 118.11900 | 61 ft | 2 kts | 231° |
| 2026-05-06 15:43 | 24.53465 | 118.11858 | 59 ft | 12 kts | 232° |
| 2026-05-06 15:43 | 24.53400 | 118.11766 | 61 ft | 15 kts | 232° |
| 2026-05-06 15:43 | 24.53381 | 118.11667 | 63 ft | 14 kts | 281° |
| 2026-05-06 15:44 | 24.53404 | 118.11564 | 68 ft | 2 kts | 285° |
| 2026-05-06 15:46 | 24.53407 | 118.11553 | 70 ft | 5 kts | 285° |
| 2026-05-06 15:46 | 24.53436 | 118.11492 | 61 ft | 12 kts | 319° |
| 2026-05-06 15:46 | 24.53520 | 118.11521 | 61 ft | 17 kts | 48° |
| 2026-05-06 15:47 | 24.53543 | 118.11553 | 62 ft | 3 kts | 52° |
| 2026-05-06 15:47 | 24.53736 | 118.11824 | 57 ft | 96 kts | 52° |
| 2026-05-06 15:47 | 24.54339 | 118.12682 | 176 ft | 177 kts | 53° |
| 2026-05-06 15:47 | 24.55155 | 118.13853 | 955 ft | 205 kts | 52° |
| 2026-05-06 15:48 | 24.56000 | 118.15146 | 1930 ft | 206 kts | 60° |
| 2026-05-06 15:48 | 24.56499 | 118.16594 | 2604 ft | 204 kts | 79° |
| 2026-05-06 15:48 | 24.56491 | 118.18168 | 2936 ft | 209 kts | 101° |
| 2026-05-06 15:48 | 24.55929 | 118.19630 | 2993 ft | 210 kts | 124° |
| 2026-05-06 15:49 | 24.54896 | 118.20752 | 3038 ft | 210 kts | 147° |
| 2026-05-06 15:49 | 24.53534 | 118.21374 | 3320 ft | 216 kts | 169° |
| 2026-05-06 15:49 | 24.52043 | 118.21376 | 4025 ft | 214 kts | 193° |
| 2026-05-06 15:49 | 24.50743 | 118.20640 | 4789 ft | 212 kts | 223° |
| 2026-05-06 15:50 | 24.49827 | 118.19363 | 5426 ft | 219 kts | 234° |
| 2026-05-06 15:50 | 24.48886 | 118.17950 | 5760 ft | 243 kts | 232° |
| 2026-05-06 15:50 | 24.47829 | 118.16417 | 6222 ft | 259 kts | 232° |
| 2026-05-06 15:50 | 24.46718 | 118.14830 | 7004 ft | 263 kts | 231° |
| 2026-05-06 15:51 | 24.45591 | 118.13227 | 7806 ft | 267 kts | 232° |
| 2026-05-06 15:51 | 24.44441 | 118.11600 | 8665 ft | 271 kts | 232° |
| 2026-05-06 15:51 | 24.43277 | 118.09959 | 9551 ft | 275 kts | 232° |
| 2026-05-06 15:51 | 24.42107 | 118.08311 | 10304 ft | 281 kts | 232° |
| 2026-05-06 15:52 | 24.40846 | 118.06535 | 10662 ft | 302 kts | 232° |
| 2026-05-06 15:52 | 24.39534 | 118.04688 | 10965 ft | 321 kts | 232° |
| 2026-05-06 15:52 | 24.38121 | 118.02701 | 11299 ft | 338 kts | 233° |
| 2026-05-06 15:52 | 24.36654 | 118.00640 | 11822 ft | 346 kts | 233° |
| 2026-05-06 15:53 | 24.35163 | 117.98543 | 12426 ft | 351 kts | 233° |
| 2026-05-06 15:53 | 24.33647 | 117.96424 | 13049 ft | 356 kts | 233° |
| 2026-05-06 15:53 | 24.32115 | 117.94274 | 13663 ft | 359 kts | 233° |
| 2026-05-06 15:53 | 24.30576 | 117.92111 | 14213 ft | 364 kts | 233° |
| 2026-05-06 15:54 | 24.29006 | 117.89908 | 14764 ft | 366 kts | 233° |
| 2026-05-06 15:54 | 24.27431 | 117.87701 | 15321 ft | 369 kts | 233° |
| 2026-05-06 15:54 | 24.25843 | 117.85475 | 15898 ft | 371 kts | 233° |
| 2026-05-06 15:54 | 24.24151 | 117.83317 | 16453 ft | 375 kts | 228° |
| 2026-05-06 15:55 | 24.22301 | 117.81286 | 17005 ft | 379 kts | 226° |
| 2026-05-06 15:55 | 24.20410 | 117.79265 | 17586 ft | 381 kts | 226° |
| 2026-05-06 15:55 | 24.18502 | 117.77226 | 18128 ft | 385 kts | 226° |
| 2026-05-06 15:55 | 24.16586 | 117.75173 | 18638 ft | 387 kts | 226° |
| 2026-05-06 15:56 | 24.14651 | 117.73110 | 19121 ft | 390 kts | 226° |
| 2026-05-06 15:56 | 24.12707 | 117.71025 | 19590 ft | 393 kts | 227° |
| 2026-05-06 15:56 | 24.10750 | 117.68924 | 20127 ft | 395 kts | 227° |
| 2026-05-06 15:56 | 24.08785 | 117.66817 | 20636 ft | 397 kts | 227° |
| 2026-05-06 15:57 | 24.06806 | 117.64696 | 21161 ft | 400 kts | 227° |
| 2026-05-06 15:57 | 24.04810 | 117.62561 | 21689 ft | 403 kts | 226° |
| 2026-05-06 15:57 | 24.02801 | 117.60419 | 22217 ft | 405 kts | 227° |
| 2026-05-06 15:57 | 24.00782 | 117.58254 | 22727 ft | 407 kts | 227° |
| 2026-05-06 15:58 | 23.98750 | 117.56070 | 23223 ft | 411 kts | 227° |
| 2026-05-06 15:58 | 23.96707 | 117.53874 | 23686 ft | 413 kts | 227° |
| 2026-05-06 15:58 | 23.94647 | 117.51663 | 24126 ft | 416 kts | 227° |
| 2026-05-06 15:58 | 23.92577 | 117.49443 | 24552 ft | 420 kts | 227° |
| 2026-05-06 15:59 | 23.90482 | 117.47199 | 24963 ft | 423 kts | 226° |
| 2026-05-06 15:59 | 23.88378 | 117.44948 | 25489 ft | 425 kts | 226° |
| 2026-05-06 15:59 | 23.86307 | 117.42624 | 25944 ft | 427 kts | 231° |
| 2026-05-06 15:59 | 23.84553 | 117.40010 | 26408 ft | 428 kts | 240° |
| 2026-05-06 16:00 | 23.83250 | 117.37087 | 26866 ft | 430 kts | 250° |
| 2026-05-06 16:00 | 23.82222 | 117.34006 | 27316 ft | 433 kts | 252° |
| 2026-05-06 16:00 | 23.81290 | 117.30864 | 27563 ft | 434 kts | 253° |
| 2026-05-06 16:00 | 23.80425 | 117.27765 | 27613 ft | 419 kts | 254° |
| 2026-05-06 16:01 | 23.79600 | 117.24751 | 27611 ft | 409 kts | 254° |
| 2026-05-06 16:01 | 23.78786 | 117.21781 | 27606 ft | 408 kts | 254° |
| 2026-05-06 16:01 | 23.77964 | 117.18813 | 27604 ft | 408 kts | 254° |
| 2026-05-06 16:01 | 23.77033 | 117.15884 | 27600 ft | 410 kts | 248° |
| 2026-05-06 16:02 | 23.75686 | 117.13146 | 27598 ft | 412 kts | 238° |
| 2026-05-06 16:02 | 23.73915 | 117.10684 | 27594 ft | 413 kts | 231° |
| 2026-05-06 16:02 | 23.72017 | 117.08376 | 27592 ft | 414 kts | 229° |
| 2026-05-06 16:02 | 23.70039 | 117.06100 | 27590 ft | 414 kts | 228° |
| 2026-05-06 16:03 | 23.68025 | 117.03839 | 27596 ft | 414 kts | 228° |
| 2026-05-06 16:03 | 23.66014 | 117.01595 | 27592 ft | 414 kts | 228° |
| 2026-05-06 16:03 | 23.64003 | 116.99344 | 27592 ft | 414 kts | 228° |
| 2026-05-06 16:03 | 23.61998 | 116.97087 | 27591 ft | 414 kts | 228° |
| 2026-05-06 16:04 | 23.59999 | 116.94828 | 27588 ft | 414 kts | 228° |
| 2026-05-06 16:04 | 23.58002 | 116.92562 | 27594 ft | 414 kts | 228° |
| 2026-05-06 16:04 | 23.56013 | 116.90304 | 27588 ft | 414 kts | 228° |
| 2026-05-06 16:04 | 23.54017 | 116.88036 | 27591 ft | 414 kts | 228° |
| 2026-05-06 16:05 | 23.52022 | 116.85770 | 27586 ft | 414 kts | 229° |
| 2026-05-06 16:05 | 23.50030 | 116.83509 | 27587 ft | 414 kts | 229° |
| 2026-05-06 16:05 | 23.48031 | 116.81243 | 27588 ft | 415 kts | 229° |
| 2026-05-06 16:05 | 23.46034 | 116.78979 | 27584 ft | 414 kts | 229° |
| 2026-05-06 16:06 | 23.43969 | 116.76793 | 27593 ft | 416 kts | 223° |
| 2026-05-06 16:06 | 23.41727 | 116.74791 | 27590 ft | 416 kts | 221° |
| 2026-05-06 16:06 | 23.39453 | 116.72846 | 27590 ft | 417 kts | 220° |
| 2026-05-06 16:06 | 23.37152 | 116.70923 | 27590 ft | 417 kts | 220° |
| 2026-05-06 16:07 | 23.34843 | 116.69014 | 27587 ft | 417 kts | 220° |
| 2026-05-06 16:07 | 23.32537 | 116.67113 | 27582 ft | 417 kts | 220° |
| 2026-05-06 16:07 | 23.30223 | 116.65203 | 27591 ft | 417 kts | 220° |
| 2026-05-06 16:07 | 23.27922 | 116.63301 | 27592 ft | 417 kts | 220° |
| 2026-05-06 16:08 | 23.25610 | 116.61386 | 27586 ft | 417 kts | 220° |
| 2026-05-06 16:08 | 23.23304 | 116.59475 | 27581 ft | 417 kts | 220° |
| 2026-05-06 16:08 | 23.20997 | 116.57563 | 27584 ft | 416 kts | 220° |
| 2026-05-06 16:08 | 23.18694 | 116.55654 | 27587 ft | 416 kts | 220° |
| 2026-05-06 16:09 | 23.16391 | 116.53745 | 27585 ft | 417 kts | 220° |
| 2026-05-06 16:09 | 23.14086 | 116.51836 | 27585 ft | 417 kts | 220° |
| 2026-05-06 16:09 | 23.11784 | 116.49930 | 27582 ft | 417 kts | 220° |
| 2026-05-06 16:09 | 23.09476 | 116.48020 | 27582 ft | 417 kts | 220° |
| 2026-05-06 16:10 | 23.07172 | 116.46114 | 27584 ft | 417 kts | 220° |
| 2026-05-06 16:10 | 23.04865 | 116.44207 | 27585 ft | 417 kts | 220° |
| 2026-05-06 16:10 | 23.02560 | 116.42302 | 27585 ft | 417 kts | 220° |
| 2026-05-06 16:10 | 23.00256 | 116.40396 | 27588 ft | 416 kts | 220° |
| 2026-05-06 16:11 | 22.98110 | 116.38300 | 27590 ft | 413 kts | 230° |
| 2026-05-06 16:11 | 22.96358 | 116.35852 | 27588 ft | 410 kts | 240° |
| 2026-05-06 16:11 | 22.95103 | 116.33099 | 27583 ft | 407 kts | 251° |
| 2026-05-06 16:11 | 22.94398 | 116.30137 | 27591 ft | 405 kts | 261° |
| 2026-05-06 16:12 | 22.93976 | 116.27110 | 27582 ft | 406 kts | 263° |
| 2026-05-06 16:12 | 22.93653 | 116.24068 | 27579 ft | 406 kts | 265° |
| 2026-05-06 16:12 | 22.93375 | 116.21065 | 27579 ft | 406 kts | 265° |
| 2026-05-06 16:12 | 22.93096 | 116.17979 | 27579 ft | 406 kts | 265° |
| 2026-05-06 16:13 | 22.92814 | 116.14932 | 27580 ft | 406 kts | 265° |
| 2026-05-06 16:13 | 22.92524 | 116.11928 | 27582 ft | 406 kts | 264° |
| 2026-05-06 16:13 | 22.92220 | 116.08880 | 27582 ft | 406 kts | 264° |
| 2026-05-06 16:13 | 22.91908 | 116.05834 | 27582 ft | 406 kts | 264° |
| 2026-05-06 16:14 | 22.91593 | 116.02795 | 27583 ft | 406 kts | 264° |
| 2026-05-06 16:14 | 22.91274 | 115.99756 | 27582 ft | 406 kts | 264° |
| 2026-05-06 16:14 | 22.90953 | 115.96711 | 27582 ft | 406 kts | 264° |
| 2026-05-06 16:14 | 22.90633 | 115.93670 | 27583 ft | 406 kts | 264° |
| 2026-05-06 16:15 | 22.90314 | 115.90629 | 27585 ft | 406 kts | 264° |
| 2026-05-06 16:15 | 22.89994 | 115.87581 | 27585 ft | 407 kts | 264° |
| 2026-05-06 16:15 | 22.89680 | 115.84532 | 27586 ft | 407 kts | 264° |
| 2026-05-06 16:15 | 22.89375 | 115.81486 | 27585 ft | 407 kts | 265° |
| 2026-05-06 16:16 | 22.89074 | 115.78437 | 27582 ft | 407 kts | 265° |
| 2026-05-06 16:16 | 22.88772 | 115.75389 | 27583 ft | 407 kts | 265° |
| 2026-05-06 16:16 | 22.88468 | 115.72338 | 27584 ft | 406 kts | 264° |
| 2026-05-06 16:16 | 22.88163 | 115.69296 | 27582 ft | 406 kts | 264° |
| 2026-05-06 16:17 | 22.87856 | 115.66249 | 27583 ft | 406 kts | 264° |
| 2026-05-06 16:17 | 22.87548 | 115.63198 | 27581 ft | 407 kts | 264° |
| 2026-05-06 16:17 | 22.87239 | 115.60153 | 27582 ft | 407 kts | 264° |
| 2026-05-06 16:17 | 22.86929 | 115.57105 | 27582 ft | 407 kts | 264° |
| 2026-05-06 16:18 | 22.86619 | 115.54057 | 27582 ft | 407 kts | 264° |
| 2026-05-06 16:18 | 22.86307 | 115.51004 | 27582 ft | 407 kts | 264° |
| 2026-05-06 16:18 | 22.85996 | 115.47958 | 27582 ft | 407 kts | 264° |
| 2026-05-06 16:18 | 22.85684 | 115.44914 | 27580 ft | 407 kts | 264° |
| 2026-05-06 16:19 | 22.85371 | 115.41864 | 27574 ft | 407 kts | 264° |
| 2026-05-06 16:19 | 22.85057 | 115.38813 | 27579 ft | 407 kts | 264° |
| 2026-05-06 16:19 | 22.84744 | 115.35764 | 27580 ft | 407 kts | 264° |
| 2026-05-06 16:19 | 22.84430 | 115.32717 | 27582 ft | 407 kts | 264° |
| 2026-05-06 16:20 | 22.84119 | 115.29713 | 27580 ft | 407 kts | 264° |
| 2026-05-06 16:20 | 22.83803 | 115.26663 | 27580 ft | 407 kts | 264° |
| 2026-05-06 16:20 | 22.83487 | 115.23620 | 27579 ft | 407 kts | 264° |
| 2026-05-06 16:20 | 22.83171 | 115.20575 | 27579 ft | 407 kts | 264° |
| 2026-05-06 16:21 | 22.82853 | 115.17524 | 27579 ft | 407 kts | 264° |
| 2026-05-06 16:21 | 22.82535 | 115.14479 | 27579 ft | 407 kts | 264° |
| 2026-05-06 16:21 | 22.82216 | 115.11433 | 27573 ft | 407 kts | 264° |
| 2026-05-06 16:21 | 22.81898 | 115.08386 | 27575 ft | 407 kts | 264° |
| 2026-05-06 16:22 | 22.81578 | 115.05339 | 27577 ft | 407 kts | 264° |
| 2026-05-06 16:22 | 22.81258 | 115.02298 | 27577 ft | 407 kts | 264° |
| 2026-05-06 16:22 | 22.80938 | 114.99253 | 27571 ft | 407 kts | 264° |
| 2026-05-06 16:22 | 22.80617 | 114.96210 | 27573 ft | 407 kts | 264° |
| 2026-05-06 16:23 | 22.80295 | 114.93164 | 27574 ft | 407 kts | 264° |
| 2026-05-06 16:23 | 22.79971 | 114.90112 | 27572 ft | 407 kts | 264° |
| 2026-05-06 16:23 | 22.79648 | 114.87070 | 27571 ft | 407 kts | 264° |
| 2026-05-06 16:23 | 22.79324 | 114.84029 | 27572 ft | 407 kts | 264° |
| 2026-05-06 16:24 | 22.79000 | 114.80984 | 27571 ft | 407 kts | 264° |
| 2026-05-06 16:24 | 22.78675 | 114.77935 | 27571 ft | 407 kts | 264° |
| 2026-05-06 16:24 | 22.78351 | 114.74896 | 27571 ft | 406 kts | 264° |
| 2026-05-06 16:24 | 22.78030 | 114.71855 | 27571 ft | 406 kts | 264° |
| 2026-05-06 16:25 | 22.77720 | 114.68812 | 27568 ft | 406 kts | 264° |
| 2026-05-06 16:25 | 22.77413 | 114.65768 | 27569 ft | 406 kts | 264° |
| 2026-05-06 16:25 | 22.77107 | 114.62729 | 27566 ft | 406 kts | 264° |
| 2026-05-06 16:25 | 22.76799 | 114.59679 | 27566 ft | 406 kts | 264° |
| 2026-05-06 16:26 | 22.76490 | 114.56642 | 27559 ft | 406 kts | 264° |
| 2026-05-06 16:26 | 22.76179 | 114.53599 | 27567 ft | 406 kts | 264° |
| 2026-05-06 16:26 | 22.75871 | 114.50556 | 27564 ft | 406 kts | 264° |
| 2026-05-06 16:26 | 22.75561 | 114.47511 | 27563 ft | 406 kts | 264° |
| 2026-05-06 16:27 | 22.75249 | 114.44464 | 27567 ft | 406 kts | 264° |
| 2026-05-06 16:27 | 22.74938 | 114.41424 | 27566 ft | 406 kts | 264° |
| 2026-05-06 16:27 | 22.74625 | 114.38387 | 27561 ft | 406 kts | 264° |
| 2026-05-06 16:27 | 22.74312 | 114.35347 | 27564 ft | 406 kts | 264° |
| 2026-05-06 16:28 | 22.73998 | 114.32304 | 27556 ft | 406 kts | 265° |
| 2026-05-06 16:28 | 22.73685 | 114.29269 | 27560 ft | 406 kts | 265° |
| 2026-05-06 16:28 | 22.73371 | 114.26230 | 27560 ft | 406 kts | 265° |
| 2026-05-06 16:28 | 22.73057 | 114.23191 | 27560 ft | 406 kts | 265° |
| 2026-05-06 16:29 | 22.72741 | 114.20154 | 27559 ft | 406 kts | 265° |
| 2026-05-06 16:29 | 22.72426 | 114.17113 | 27558 ft | 406 kts | 265° |
| 2026-05-06 16:29 | 22.72110 | 114.14079 | 27560 ft | 406 kts | 264° |
| 2026-05-06 16:29 | 22.71794 | 114.11045 | 27559 ft | 406 kts | 264° |
| 2026-05-06 16:30 | 22.71442 | 114.08012 | 27559 ft | 406 kts | 261° |
| 2026-05-06 16:30 | 22.71255 | 114.06998 | 27562 ft | 407 kts | 258° |
| 2026-05-06 16:30 | 22.69528 | 114.02273 | 27563 ft | 409 kts | 241° |
| 2026-05-06 16:30 | 22.67842 | 113.99775 | 27563 ft | 412 kts | 233° |
| 2026-05-06 16:31 | 22.65967 | 113.97426 | 27564 ft | 413 kts | 231° |
| 2026-05-06 16:31 | 22.64685 | 113.95908 | 27564 ft | 413 kts | 230° |
| 2026-05-06 16:31 | 22.62714 | 113.93637 | 27566 ft | 414 kts | 230° |
| 2026-05-06 16:31 | 22.60730 | 113.91378 | 27565 ft | 414 kts | 229° |
| 2026-05-06 16:32 | 22.58085 | 113.88355 | 27565 ft | 414 kts | 230° |
| 2026-05-06 16:32 | 22.56781 | 113.86855 | 27565 ft | 414 kts | 230° |
| 2026-05-06 16:32 | 22.54813 | 113.84579 | 27565 ft | 413 kts | 230° |
| 2026-05-06 16:32 | 22.52856 | 113.82305 | 27565 ft | 413 kts | 230° |
| 2026-05-06 16:33 | 22.50894 | 113.80021 | 27563 ft | 414 kts | 230° |
| 2026-05-06 16:33 | 22.48936 | 113.77740 | 27558 ft | 415 kts | 230° |
| 2026-05-06 16:33 | 22.46978 | 113.75460 | 27558 ft | 415 kts | 230° |
| 2026-05-06 16:34 | 22.43050 | 113.70889 | 27562 ft | 414 kts | 230° |
| 2026-05-06 16:34 | 22.41089 | 113.68610 | 27558 ft | 414 kts | 230° |
| 2026-05-06 16:34 | 22.39127 | 113.66332 | 27558 ft | 414 kts | 230° |
| 2026-05-06 16:34 | 22.37166 | 113.64055 | 27559 ft | 414 kts | 230° |
| 2026-05-06 16:35 | 22.35205 | 113.61778 | 27556 ft | 414 kts | 230° |
| 2026-05-06 16:35 | 22.33247 | 113.59507 | 27560 ft | 414 kts | 230° |
| 2026-05-06 16:35 | 22.31281 | 113.57229 | 27561 ft | 413 kts | 230° |
| 2026-05-06 16:35 | 22.29321 | 113.54957 | 27563 ft | 414 kts | 230° |
| 2026-05-06 16:36 | 22.27363 | 113.52689 | 27563 ft | 414 kts | 230° |
| 2026-05-06 16:36 | 22.25398 | 113.50413 | 27563 ft | 414 kts | 230° |
| 2026-05-06 16:36 | 22.23487 | 113.48092 | 27563 ft | 413 kts | 234° |
| 2026-05-06 16:36 | 22.21919 | 113.45508 | 27563 ft | 410 kts | 244° |
| 2026-05-06 16:37 | 22.20702 | 113.42739 | 27548 ft | 409 kts | 248° |
| 2026-05-06 16:37 | 22.19587 | 113.39908 | 27549 ft | 408 kts | 250° |
| 2026-05-06 16:37 | 22.18531 | 113.37068 | 27549 ft | 408 kts | 250° |
| 2026-05-06 16:37 | 22.17496 | 113.34216 | 27550 ft | 408 kts | 250° |
| 2026-05-06 16:38 | 22.16465 | 113.31366 | 27550 ft | 408 kts | 250° |
| 2026-05-06 16:38 | 22.15435 | 113.28537 | 27549 ft | 408 kts | 250° |
| 2026-05-06 16:38 | 22.14397 | 113.25705 | 27550 ft | 408 kts | 250° |
| 2026-05-06 16:38 | 22.13344 | 113.22868 | 27552 ft | 408 kts | 249° |
| 2026-05-06 16:39 | 22.12224 | 113.20053 | 27551 ft | 409 kts | 248° |
| 2026-05-06 16:39 | 22.11058 | 113.17268 | 27551 ft | 409 kts | 247° |
| 2026-05-06 16:39 | 22.09868 | 113.14476 | 27552 ft | 409 kts | 247° |
| 2026-05-06 16:39 | 22.08680 | 113.11689 | 27552 ft | 409 kts | 247° |
| 2026-05-06 16:40 | 22.07500 | 113.08906 | 27553 ft | 408 kts | 248° |
| 2026-05-06 16:40 | 22.06328 | 113.06121 | 27552 ft | 408 kts | 248° |
| 2026-05-06 16:40 | 22.05160 | 113.03330 | 27552 ft | 408 kts | 248° |
| 2026-05-06 16:40 | 22.03997 | 113.00543 | 27546 ft | 408 kts | 248° |
| 2026-05-06 16:41 | 22.02841 | 112.97745 | 27553 ft | 409 kts | 249° |
| 2026-05-06 16:41 | 22.01731 | 112.94932 | 27552 ft | 409 kts | 249° |
| 2026-05-06 16:41 | 22.00639 | 112.92095 | 27552 ft | 409 kts | 249° |
| 2026-05-06 16:41 | 21.99556 | 112.89260 | 27552 ft | 409 kts | 249° |
| 2026-05-06 16:42 | 21.98470 | 112.86430 | 27552 ft | 409 kts | 249° |
| 2026-05-06 16:42 | 21.97383 | 112.83615 | 27555 ft | 409 kts | 249° |
| 2026-05-06 16:42 | 21.96283 | 112.80786 | 27555 ft | 409 kts | 249° |
| 2026-05-06 16:42 | 21.95163 | 112.77975 | 27553 ft | 409 kts | 249° |
| 2026-05-06 16:43 | 21.94029 | 112.75165 | 27554 ft | 409 kts | 248° |
| 2026-05-06 16:43 | 21.92893 | 112.72367 | 27554 ft | 408 kts | 248° |
| 2026-05-06 16:43 | 21.91754 | 112.69561 | 27555 ft | 408 kts | 248° |
| 2026-05-06 16:43 | 21.90618 | 112.66759 | 27556 ft | 408 kts | 248° |
| 2026-05-06 16:44 | 21.89497 | 112.63993 | 27552 ft | 408 kts | 248° |
| 2026-05-06 16:44 | 21.88364 | 112.61193 | 27551 ft | 408 kts | 248° |
| 2026-05-06 16:44 | 21.87229 | 112.58386 | 27553 ft | 408 kts | 248° |
| 2026-05-06 16:44 | 21.86096 | 112.55587 | 27549 ft | 408 kts | 248° |
| 2026-05-06 16:45 | 21.84960 | 112.52784 | 27549 ft | 408 kts | 248° |
| 2026-05-06 16:45 | 21.83839 | 112.49983 | 27549 ft | 408 kts | 249° |
| 2026-05-06 16:45 | 21.82729 | 112.47173 | 27549 ft | 408 kts | 249° |
| 2026-05-06 16:45 | 21.81622 | 112.44360 | 27548 ft | 408 kts | 249° |
| 2026-05-06 16:46 | 21.80514 | 112.41549 | 27552 ft | 409 kts | 249° |
| 2026-05-06 16:46 | 21.79400 | 112.38731 | 27552 ft | 409 kts | 249° |
| 2026-05-06 16:46 | 21.78286 | 112.35917 | 27552 ft | 409 kts | 249° |
| 2026-05-06 16:46 | 21.77168 | 112.33105 | 27550 ft | 409 kts | 249° |
| 2026-05-06 16:47 | 21.76051 | 112.30297 | 27549 ft | 409 kts | 249° |
| 2026-05-06 16:47 | 21.74930 | 112.27484 | 27550 ft | 409 kts | 249° |
| 2026-05-06 16:47 | 21.73810 | 112.24673 | 27549 ft | 409 kts | 249° |
| 2026-05-06 16:47 | 21.72690 | 112.21865 | 27550 ft | 409 kts | 249° |
| 2026-05-06 16:48 | 21.71570 | 112.19056 | 27549 ft | 409 kts | 249° |
| 2026-05-06 16:48 | 21.70448 | 112.16246 | 27549 ft | 409 kts | 249° |
| 2026-05-06 16:48 | 21.69326 | 112.13436 | 27549 ft | 409 kts | 249° |
| 2026-05-06 16:48 | 21.68204 | 112.10627 | 27547 ft | 409 kts | 249° |
| 2026-05-06 16:49 | 21.67083 | 112.07824 | 27545 ft | 408 kts | 249° |
| 2026-05-06 16:49 | 21.65962 | 112.05020 | 27547 ft | 408 kts | 249° |
| 2026-05-06 16:49 | 21.64841 | 112.02221 | 27547 ft | 408 kts | 249° |
| 2026-05-06 16:49 | 21.63720 | 111.99420 | 27547 ft | 408 kts | 249° |
| 2026-05-06 16:50 | 21.62596 | 111.96616 | 27548 ft | 408 kts | 249° |
| 2026-05-06 16:50 | 21.61474 | 111.93816 | 27549 ft | 408 kts | 249° |
| 2026-05-06 16:50 | 21.60350 | 111.91016 | 27549 ft | 408 kts | 249° |
| 2026-05-06 16:50 | 21.59231 | 111.88228 | 27544 ft | 408 kts | 248° |
| 2026-05-06 16:51 | 21.58105 | 111.85432 | 27548 ft | 409 kts | 248° |
| 2026-05-06 16:51 | 21.56775 | 111.82764 | 27550 ft | 412 kts | 239° |
| 2026-05-06 16:51 | 21.55050 | 111.80249 | 27544 ft | 413 kts | 234° |
| 2026-05-06 16:51 | 21.53263 | 111.77880 | 27553 ft | 414 kts | 232° |
| 2026-05-06 16:52 | 21.51406 | 111.75517 | 27552 ft | 413 kts | 232° |
| 2026-05-06 16:52 | 21.49535 | 111.73182 | 27547 ft | 413 kts | 232° |
| 2026-05-06 16:52 | 21.47653 | 111.70846 | 27547 ft | 413 kts | 231° |
| 2026-05-06 16:52 | 21.45777 | 111.68513 | 27547 ft | 413 kts | 232° |
| 2026-05-06 16:53 | 21.43903 | 111.66175 | 27547 ft | 413 kts | 232° |
| 2026-05-06 16:53 | 21.42030 | 111.63831 | 27547 ft | 413 kts | 232° |
| 2026-05-06 16:53 | 21.40170 | 111.61498 | 27547 ft | 413 kts | 232° |
| 2026-05-06 16:53 | 21.38297 | 111.59147 | 27541 ft | 413 kts | 232° |
| 2026-05-06 16:54 | 21.36429 | 111.56801 | 27538 ft | 413 kts | 232° |
| 2026-05-06 16:54 | 21.34562 | 111.54458 | 27538 ft | 413 kts | 232° |
| 2026-05-06 16:54 | 21.32697 | 111.52117 | 27539 ft | 413 kts | 232° |
| 2026-05-06 16:54 | 21.30825 | 111.49770 | 27541 ft | 414 kts | 232° |
| 2026-05-06 16:55 | 21.28955 | 111.47426 | 27543 ft | 414 kts | 232° |
| 2026-05-06 16:55 | 21.27082 | 111.45080 | 27542 ft | 414 kts | 232° |
| 2026-05-06 16:55 | 21.25210 | 111.42736 | 27538 ft | 414 kts | 232° |
| 2026-05-06 16:55 | 21.23338 | 111.40395 | 27538 ft | 414 kts | 232° |
| 2026-05-06 16:56 | 21.21461 | 111.38047 | 27539 ft | 414 kts | 232° |
| 2026-05-06 16:56 | 21.19589 | 111.35706 | 27538 ft | 414 kts | 232° |
| 2026-05-06 16:56 | 21.17714 | 111.33362 | 27538 ft | 414 kts | 232° |
| 2026-05-06 16:56 | 21.15841 | 111.31022 | 27538 ft | 414 kts | 232° |
| 2026-05-06 16:57 | 21.13966 | 111.28681 | 27536 ft | 414 kts | 232° |
| 2026-05-06 16:57 | 21.12095 | 111.26345 | 27535 ft | 414 kts | 232° |
| 2026-05-06 16:57 | 21.10215 | 111.23999 | 27536 ft | 414 kts | 232° |
| 2026-05-06 16:57 | 21.08342 | 111.21663 | 27536 ft | 414 kts | 232° |
| 2026-05-06 16:58 | 21.06464 | 111.19322 | 27535 ft | 414 kts | 231° |
| 2026-05-06 16:58 | 21.04585 | 111.16980 | 27545 ft | 415 kts | 231° |
| 2026-05-06 16:58 | 21.02704 | 111.14638 | 27538 ft | 415 kts | 231° |
| 2026-05-06 16:58 | 21.00819 | 111.12290 | 27534 ft | 415 kts | 231° |
| 2026-05-06 16:59 | 20.98962 | 111.09979 | 27532 ft | 415 kts | 231° |
| 2026-05-06 16:59 | 20.97012 | 111.07647 | 27531 ft | 416 kts | 227° |
| 2026-05-06 16:59 | 20.94824 | 111.05671 | 27533 ft | 419 kts | 217° |
| 2026-05-06 16:59 | 20.92295 | 111.04095 | 27534 ft | 422 kts | 210° |
| 2026-05-06 17:00 | 20.89661 | 111.02715 | 27534 ft | 423 kts | 208° |
| 2026-05-06 17:00 | 20.86978 | 111.01416 | 27536 ft | 423 kts | 206° |
| 2026-05-06 17:00 | 20.84275 | 111.00156 | 27532 ft | 424 kts | 206° |
| 2026-05-06 17:00 | 20.81571 | 110.98907 | 27533 ft | 424 kts | 206° |
| 2026-05-06 17:01 | 20.78867 | 110.97654 | 27532 ft | 424 kts | 206° |
| 2026-05-06 17:01 | 20.76164 | 110.96393 | 27530 ft | 423 kts | 206° |
| 2026-05-06 17:01 | 20.73471 | 110.95127 | 27530 ft | 423 kts | 206° |
| 2026-05-06 17:01 | 20.70774 | 110.93853 | 27530 ft | 423 kts | 207° |
| 2026-05-06 17:02 | 20.68086 | 110.92581 | 27530 ft | 423 kts | 207° |
| 2026-05-06 17:02 | 20.65391 | 110.91304 | 27530 ft | 423 kts | 207° |
| 2026-05-06 17:02 | 20.62703 | 110.90033 | 27529 ft | 423 kts | 207° |
| 2026-05-06 17:02 | 20.59989 | 110.88744 | 27402 ft | 435 kts | 207° |
| 2026-05-06 17:03 | 20.57166 | 110.87399 | 27339 ft | 453 kts | 207° |
| 2026-05-06 17:03 | 20.54236 | 110.86007 | 27260 ft | 468 kts | 206° |
| 2026-05-06 17:03 | 20.51227 | 110.84631 | 27047 ft | 473 kts | 203° |
| 2026-05-06 17:03 | 20.48015 | 110.83831 | 26792 ft | 475 kts | 189° |
| 2026-05-06 17:04 | 20.44750 | 110.83522 | 26432 ft | 468 kts | 186° |
| 2026-05-06 17:04 | 20.41519 | 110.83293 | 25946 ft | 462 kts | 186° |
| 2026-05-06 17:04 | 20.38329 | 110.83066 | 25415 ft | 458 kts | 186° |
| 2026-05-06 17:04 | 20.35165 | 110.82833 | 24897 ft | 454 kts | 186° |
| 2026-05-06 17:05 | 20.32024 | 110.82596 | 24380 ft | 450 kts | 187° |
| 2026-05-06 17:05 | 20.28912 | 110.82359 | 23855 ft | 447 kts | 187° |
| 2026-05-06 17:05 | 20.25820 | 110.82121 | 23300 ft | 444 kts | 187° |
| 2026-05-06 17:05 | 20.22750 | 110.81884 | 22748 ft | 439 kts | 187° |
| 2026-05-06 17:06 | 20.19720 | 110.81650 | 22219 ft | 434 kts | 187° |
| 2026-05-06 17:06 | 20.16726 | 110.81421 | 21716 ft | 429 kts | 186° |
| 2026-05-06 17:06 | 20.13772 | 110.81194 | 21221 ft | 424 kts | 186° |
| 2026-05-06 17:06 | 20.10853 | 110.80966 | 20737 ft | 419 kts | 186° |
| 2026-05-06 17:07 | 20.07957 | 110.80740 | 20248 ft | 414 kts | 186° |
| 2026-05-06 17:07 | 20.05103 | 110.80518 | 19769 ft | 410 kts | 186° |
| 2026-05-06 17:07 | 20.02275 | 110.80299 | 19285 ft | 406 kts | 187° |
| 2026-05-06 17:07 | 19.99470 | 110.80060 | 18811 ft | 402 kts | 187° |
| 2026-05-06 17:08 | 19.96700 | 110.79820 | 18337 ft | 398 kts | 187° |
| 2026-05-06 17:08 | 19.93982 | 110.79586 | 17832 ft | 395 kts | 187° |
| 2026-05-06 17:08 | 19.91263 | 110.79355 | 17355 ft | 390 kts | 187° |
| 2026-05-06 17:08 | 19.88613 | 110.78904 | 16876 ft | 383 kts | 200° |
| 2026-05-06 17:09 | 19.86294 | 110.77597 | 16433 ft | 376 kts | 221° |
| 2026-05-06 17:09 | 19.84630 | 110.75506 | 15985 ft | 370 kts | 242° |
| 2026-05-06 17:09 | 19.83846 | 110.72941 | 15553 ft | 366 kts | 264° |
| 2026-05-06 17:09 | 19.84020 | 110.70265 | 15132 ft | 364 kts | 284° |
| 2026-05-06 17:10 | 19.84847 | 110.67721 | 14682 ft | 364 kts | 293° |
| 2026-05-06 17:10 | 19.85977 | 110.65337 | 14255 ft | 360 kts | 295° |
| 2026-05-06 17:10 | 19.86730 | 110.62821 | 14012 ft | 359 kts | 277° |
| 2026-05-06 17:10 | 19.86811 | 110.60188 | 13538 ft | 356 kts | 272° |
| 2026-05-06 17:11 | 19.87129 | 110.57583 | 12924 ft | 356 kts | 282° |
| 2026-05-06 17:11 | 19.87607 | 110.55040 | 12614 ft | 347 kts | 274° |
| 2026-05-06 17:11 | 19.87584 | 110.52488 | 11860 ft | 344 kts | 264° |
| 2026-05-06 17:11 | 19.87343 | 110.50034 | 11447 ft | 323 kts | 263° |
| 2026-05-06 17:12 | 19.87099 | 110.47730 | 10995 ft | 307 kts | 263° |
| 2026-05-06 17:12 | 19.86867 | 110.45542 | 10713 ft | 288 kts | 263° |
| 2026-05-06 17:12 | 19.86653 | 110.43504 | 10558 ft | 272 kts | 263° |
| 2026-05-06 17:12 | 19.86444 | 110.41519 | 10442 ft | 270 kts | 263° |
| 2026-05-06 17:13 | 19.86237 | 110.39537 | 10287 ft | 272 kts | 263° |
| 2026-05-06 17:13 | 19.86028 | 110.37540 | 9960 ft | 271 kts | 263° |
| 2026-05-06 17:13 | 19.85816 | 110.35517 | 9650 ft | 282 kts | 263° |
| 2026-05-06 17:13 | 19.85596 | 110.33420 | 9392 ft | 288 kts | 263° |
| 2026-05-06 17:14 | 19.85375 | 110.31309 | 9040 ft | 287 kts | 263° |
| 2026-05-06 17:14 | 19.85155 | 110.29208 | 8662 ft | 285 kts | 263° |
| 2026-05-06 17:14 | 19.84953 | 110.27123 | 8359 ft | 281 kts | 265° |
| 2026-05-06 17:14 | 19.84891 | 110.25087 | 8217 ft | 270 kts | 268° |
| 2026-05-06 17:15 | 19.84883 | 110.23139 | 8101 ft | 259 kts | 269° |
| 2026-05-06 17:15 | 19.84880 | 110.21269 | 7995 ft | 248 kts | 269° |
| 2026-05-06 17:15 | 19.84875 | 110.19478 | 7855 ft | 238 kts | 268° |
| 2026-05-06 17:15 | 19.84870 | 110.17741 | 7662 ft | 233 kts | 268° |
| 2026-05-06 17:16 | 19.85033 | 110.16038 | 7353 ft | 233 kts | 285° |
| 2026-05-06 17:16 | 19.85886 | 110.14587 | 7013 ft | 237 kts | 317° |
| 2026-05-06 17:16 | 19.87394 | 110.13834 | 6468 ft | 250 kts | 351° |
| 2026-05-06 17:16 | 19.89175 | 110.13744 | 5861 ft | 263 kts | 360° |
| 2026-05-06 17:17 | 19.91014 | 110.13773 | 5250 ft | 273 kts | 0° |
| 2026-05-06 17:17 | 19.92965 | 110.13869 | 4632 ft | 281 kts | 9° |
| 2026-05-06 17:17 | 19.94696 | 110.14729 | 4088 ft | 283 kts | 43° |
| 2026-05-06 17:17 | 19.95725 | 110.16451 | 3671 ft | 275 kts | 76° |
| 2026-05-06 17:18 | 19.95811 | 110.18398 | 3220 ft | 257 kts | 99° |
| 2026-05-06 17:18 | 19.95623 | 110.20218 | 3022 ft | 237 kts | 98° |
| 2026-05-06 17:18 | 19.95497 | 110.21876 | 2999 ft | 216 kts | 96° |
| 2026-05-06 17:18 | 19.95370 | 110.23369 | 3004 ft | 190 kts | 97° |
| 2026-05-06 17:19 | 19.95334 | 110.24702 | 3029 ft | 172 kts | 94° |
| 2026-05-06 17:19 | 19.95345 | 110.25917 | 3005 ft | 156 kts | 94° |
| 2026-05-06 17:19 | 19.95357 | 110.27012 | 3005 ft | 142 kts | 94° |
| 2026-05-06 17:19 | 19.95298 | 110.28039 | 2961 ft | 139 kts | 104° |
| 2026-05-06 17:20 | 19.95050 | 110.29032 | 2912 ft | 139 kts | 112° |
| 2026-05-06 17:20 | 19.94738 | 110.30007 | 2855 ft | 139 kts | 113° |
| 2026-05-06 17:20 | 19.94418 | 110.30978 | 2813 ft | 139 kts | 114° |
| 2026-05-06 17:20 | 19.94094 | 110.31945 | 2758 ft | 139 kts | 113° |
| 2026-05-06 17:21 | 19.93869 | 110.32627 | 2503 ft | 150 kts | 112° |
| 2026-05-06 17:21 | 19.93581 | 110.33748 | 2025 ft | 165 kts | 104° |
| 2026-05-06 17:21 | 19.93441 | 110.34982 | 1633 ft | 169 kts | 93° |
| 2026-05-06 17:21 | 19.93467 | 110.36519 | 1469 ft | 146 kts | 96° |
| 2026-05-06 17:22 | 19.93460 | 110.37230 | 1360 ft | 139 kts | 93° |
| 2026-05-06 17:22 | 19.93464 | 110.38230 | 1171 ft | 132 kts | 95° |
| 2026-05-06 17:22 | 19.93464 | 110.39211 | 1007 ft | 133 kts | 94° |
| 2026-05-06 17:22 | 19.93464 | 110.40201 | 841 ft | 135 kts | 92° |
| 2026-05-06 17:23 | 19.93465 | 110.41196 | 696 ft | 136 kts | 91° |
| 2026-05-06 17:23 | 19.93473 | 110.42223 | 433 ft | 138 kts | 90° |
| 2026-05-06 17:23 | 19.93474 | 110.43219 | 289 ft | 136 kts | 91° |
| 2026-05-06 17:23 | 19.93477 | 110.44242 | 121 ft | 139 kts | 90° |
| 2026-05-06 17:24 | 19.93483 | 110.45249 | 91 ft | 133 kts | 90° |
| 2026-05-06 17:24 | 19.93479 | 110.46373 | 82 ft | 143 kts | 90° |
| 2026-05-06 17:24 | 19.93481 | 110.47007 | 83 ft | 42 kts | 90° |
| 2026-05-06 17:24 | 19.93484 | 110.47292 | 87 ft | 38 kts | 89° |